Time;durP1;ratioP1;P1;durP2;ratioP2;P2;SDS_P1;SDS_P2;PMS_P1;PMS_P2;Temp;Humidity;BMP_temperature;BMP_pressure;BME280_temperature;BME280_humidity;BME280_pressure;Samples;Min_cycle;Max_cycle;Signal;HPM_P1;HPM_P2
2021/10/01 00:00:17;;;;;;;20.30;13.40;;;;;;;6.82;79.56;98487.98;117204;1177;70835;-71
2021/10/01 00:03:07;;;;;;;23.80;13.50;;;;;;;6.77;79.70;98485.98;117303;1176;70521;-69
2021/10/01 00:05:52;;;;;;;24.60;13.60;;;;;;;6.72;80.40;98488.03;117031;1176;68421;-70
2021/10/01 00:08:21;;;;;;;20.60;13.10;;;;;;;6.69;80.61;98489.59;117123;1176;59534;-69
2021/10/01 00:10:51;;;;;;;18.90;12.70;;;;;;;6.65;81.04;98481.80;117146;1176;59493;-70
2021/10/01 00:13:20;;;;;;;17.90;11.00;;;;;;;6.61;81.04;98481.30;117049;1177;71395;-69
2021/10/01 00:15:50;;;;;;;18.00;11.70;;;;;;;6.58;82.47;98481.61;117113;1177;68455;-69
2021/10/01 00:18:21;;;;;;;17.50;11.80;;;;;;;6.53;82.07;98480.89;117068;1176;69242;-70
2021/10/01 00:20:50;;;;;;;;;;;;;;;6.48;80.79;98480.55;117226;1177;59619;-74
2021/10/01 00:23:20;;;;;;;21.30;10.90;;;;;;;6.42;81.01;98479.42;116993;1176;59530;-68
2021/10/01 00:25:50;;;;;;;19.70;12.00;;;;;;;6.34;80.90;98479.02;117129;1176;70450;-68
2021/10/01 00:28:20;;;;;;;18.00;11.30;;;;;;;6.30;82.13;98481.20;117090;1176;68186;-72
2021/10/01 00:30:49;;;;;;;18.30;12.50;;;;;;;6.28;81.56;98480.08;117052;1177;69226;-71
2021/10/01 00:33:19;;;;;;;17.60;10.90;;;;;;;6.26;81.96;98479.27;117077;1177;59516;-71
2021/10/01 00:35:49;;;;;;;22.10;12.30;;;;;;;6.26;82.27;98475.50;117106;1176;59520;-69
2021/10/01 00:38:20;;;;;;;19.90;12.80;;;;;;;6.25;82.13;98474.95;117096;1176;72498;-73
2021/10/01 00:40:49;;;;;;;;;;;;;;;6.25;81.38;98472.91;117008;1177;69263;-72
2021/10/01 00:43:20;;;;;;;18.90;10.50;;;;;;;6.25;81.43;98471.64;116997;1177;68477;-75
2021/10/01 00:45:51;;;;;;;20.20;13.20;;;;;;;6.25;82.97;98471.81;117021;1177;59535;-75
2021/10/01 00:48:23;;;;;;;20.50;11.60;;;;;;;6.21;83.58;98470.14;116860;1177;59519;-70
2021/10/01 00:50:53;;;;;;;18.40;13.00;;;;;;;6.19;83.15;98470.77;116870;1178;71372;-73
2021/10/01 00:53:28;;;;;;;20.00;10.90;;;;;;;6.15;82.87;98466.52;116897;1177;69185;-75
2021/10/01 00:55:59;;;;;;;16.20;10.60;;;;;;;6.12;83.42;98466.34;116848;1178;69544;-69
2021/10/01 00:58:29;;;;;;;;;;;;;;;6.09;83.36;98469.77;117022;1177;59504;-69
2021/10/01 01:01:12;;;;;;;21.40;12.10;;;;;;;6.06;82.14;98469.83;116899;1177;59494;-71
2021/10/01 01:03:48;;;;;;;17.40;11.80;;;;;;;6.02;82.31;98468.48;116963;1176;71379;-71
2021/10/01 01:06:40;;;;;;;19.10;12.20;;;;;;;6.00;82.19;98465.02;116844;1178;69227;-74
2021/10/01 01:09:52;;;;;;;20.00;12.90;;;;;;;5.95;82.41;98464.77;116967;1177;68600;-74
2021/10/01 01:12:39;;;;;;;24.40;13.80;;;;;;;5.87;81.64;98464.04;116934;1180;59557;-73
2021/10/01 01:15:15;;;;;;;21.50;13.90;;;;;;;5.81;81.63;98465.42;117177;1177;59528;-69
2021/10/01 01:18:01;;;;;;;23.90;13.60;;;;;;;5.73;81.84;98459.48;117044;1177;70771;-68
2021/10/01 01:20:41;;;;;;;19.10;12.20;;;;;;;5.66;81.63;98457.88;117027;1177;68985;-75
2021/10/01 01:23:31;;;;;;;19.40;13.20;;;;;;;5.61;82.42;98454.16;116847;1170;69441;-75
2021/10/01 01:26:05;;;;;;;;;;;;;;;5.55;83.54;98453.72;116924;1177;60353;-75
2021/10/01 01:28:54;;;;;;;18.80;11.30;;;;;;;5.45;83.71;98454.44;117019;1177;59561;-75
2021/10/01 01:31:42;;;;;;;16.10;11.10;;;;;;;5.36;84.57;98452.95;117064;1177;70555;-71
2021/10/01 01:34:19;;;;;;;19.80;12.40;;;;;;;5.31;83.02;98448.13;116991;1177;68901;-71
2021/10/01 01:37:02;;;;;;;18.40;11.40;;;;;;;5.25;84.56;98451.23;116769;1179;69220;-73
2021/10/01 01:39:37;;;;;;;18.00;11.10;;;;;;;5.21;84.89;98454.56;116775;1178;59519;-73
2021/10/01 01:42:09;;;;;;;17.80;12.80;;;;;;;5.19;85.70;98455.09;116953;1177;59549;-72
2021/10/01 01:44:40;;;;;;;16.80;12.40;;;;;;;5.19;85.33;98455.00;117020;1176;70537;-71
2021/10/01 01:47:12;;;;;;;19.50;13.10;;;;;;;5.20;84.67;98456.59;116949;1178;69228;-70
2021/10/01 01:49:45;;;;;;;20.60;11.20;;;;;;;5.23;84.36;98459.05;116980;1176;69067;-74
2021/10/01 01:52:18;;;;;;;17.60;11.20;;;;;;;5.24;85.06;98458.44;117157;1177;59526;-75
2021/10/01 01:54:49;;;;;;;15.50;9.20;;;;;;;5.24;85.63;98462.61;116884;1177;60379;-75
2021/10/01 01:57:23;;;;;;;23.80;12.80;;;;;;;5.25;85.50;98462.67;116988;1177;71762;-75
2021/10/01 01:59:57;;;;;;;22.10;13.20;;;;;;;5.20;84.39;98463.49;116726;1177;68771;-74
2021/10/01 02:02:38;;;;;;;20.70;12.90;;;;;;;5.11;83.36;98468.45;116830;1177;67497;-73
2021/10/01 02:05:10;;;;;;;21.40;13.10;;;;;;;5.04;83.05;98468.86;116839;1179;59627;-68
2021/10/01 02:07:43;;;;;;;17.60;11.20;;;;;;;4.97;83.37;98466.10;116952;1177;59517;-69
2021/10/01 02:10:17;;;;;;;20.70;12.00;;;;;;;4.96;85.56;98467.83;116829;1178;71288;-75
2021/10/01 02:12:52;;;;;;;22.00;13.20;;;;;;;4.96;85.60;98466.02;116795;1179;68633;-75
2021/10/01 02:15:25;;;;;;;18.70;12.50;;;;;;;4.94;84.93;98466.70;116758;1177;69316;-73
2021/10/01 02:18:04;;;;;;;22.20;12.60;;;;;;;4.91;84.54;98471.55;117039;1177;59497;-74
2021/10/01 02:20:36;;;;;;;20.20;12.30;;;;;;;4.89;85.41;98471.85;117025;1177;59485;-72
2021/10/01 02:23:06;;;;;;;21.90;13.90;;;;;;;4.87;85.78;98469.80;116982;1177;70583;-72
2021/10/01 02:28:39;;;;;;;24.00;14.80;;;;;;;4.87;83.87;98473.09;117045;1176;68844;-72
2021/10/01 02:31:21;;;;;;;23.80;15.70;;;;;;;4.88;84.28;98469.26;117052;1177;59945;-75
2021/10/01 02:33:55;;;;;;;28.50;15.30;;;;;;;4.88;84.50;98465.34;116938;1177;59567;-70
2021/10/01 02:36:25;;;;;;;20.20;13.30;;;;;;;4.88;84.77;98463.29;116874;1177;71732;-74
2021/10/01 02:38:56;;;;;;;20.70;14.00;;;;;;;4.86;85.64;98462.73;116921;1177;69743;-73
2021/10/01 02:41:27;;;;;;;23.50;15.10;;;;;;;4.84;87.08;98463.09;116914;1177;68318;-75
2021/10/01 02:44:00;;;;;;;29.80;15.70;;;;;;;4.84;85.62;98463.23;116780;1177;59519;-74
2021/10/01 02:46:33;;;;;;;21.80;15.00;;;;;;;4.85;85.59;98462.72;116898;1177;59581;-73
2021/10/01 02:49:10;;;;;;;21.80;14.50;;;;;;;4.87;86.11;98463.91;116745;1177;70505;-73
2021/10/01 02:51:50;;;;;;;20.70;12.20;;;;;;;4.86;85.72;98465.95;116848;1177;68304;-73
2021/10/01 02:54:35;;;;;;;19.60;13.80;;;;;;;4.84;86.91;98467.23;116897;1177;69265;-74
2021/10/01 02:57:21;;;;;;;19.70;13.70;;;;;;;4.82;86.00;98465.73;116878;1179;59564;-71
2021/10/01 02:59:53;;;;;;;23.30;15.30;;;;;;;4.82;86.32;98465.42;116970;1177;59567;-69
2021/10/01 03:02:24;;;;;;;22.50;14.10;;;;;;;4.82;85.92;98466.91;116906;1180;71411;-73
2021/10/01 03:04:56;;;;;;;19.10;13.40;;;;;;;4.81;86.77;98465.95;117241;1176;69161;-74
2021/10/01 03:07:28;;;;;;;19.80;11.60;;;;;;;4.80;86.50;98465.71;116999;1177;68356;-70
2021/10/01 03:09:59;;;;;;;18.90;11.10;;;;;;;4.79;86.61;98464.59;116773;1178;59514;-75
2021/10/01 03:12:31;;;;;;;20.00;13.70;;;;;;;4.76;86.44;98469.52;116875;1177;59551;-74
2021/10/01 03:15:04;;;;;;;23.00;13.70;;;;;;;4.74;85.80;98467.62;116952;1177;70586;-73
2021/10/01 03:17:40;;;;;;;20.10;13.80;;;;;;;4.74;86.58;98472.25;116752;1177;68365;-73
2021/10/01 03:20:11;;;;;;;25.00;14.90;;;;;;;4.71;85.91;98470.41;117021;1177;68508;-75
2021/10/01 03:22:45;;;;;;;24.80;15.90;;;;;;;4.70;85.14;98466.64;116685;1177;59587;-68
2021/10/01 03:25:18;;;;;;;21.00;14.60;;;;;;;4.68;84.46;98464.33;116865;1176;59567;-70
2021/10/01 03:27:50;;;;;;;20.70;14.50;;;;;;;4.65;84.86;98465.09;117053;1177;71403;-73
2021/10/01 03:30:23;;;;;;;22.70;13.90;;;;;;;4.64;85.67;98463.02;117006;1177;69038;-69
2021/10/01 03:32:53;;;;;;;;;;;;;;;4.62;86.45;98461.38;117019;1176;67255;-75
2021/10/01 03:35:27;;;;;;;23.40;12.50;;;;;;;4.59;85.74;98462.59;117028;1177;59517;-75
2021/10/01 03:37:59;;;;;;;22.10;15.40;;;;;;;4.58;86.30;98463.84;116858;1180;59555;-69
2021/10/01 03:40:32;;;;;;;19.70;13.20;;;;;;;4.55;86.81;98461.31;116754;1177;71070;-75
2021/10/01 03:43:03;;;;;;;17.70;11.10;;;;;;;4.52;86.41;98463.30;117127;1176;68358;-74
2021/10/01 03:45:33;;;;;;;20.20;13.30;;;;;;;4.50;86.76;98462.98;116971;1180;68661;-72
2021/10/01 03:48:03;;;;;;;18.10;13.50;;;;;;;4.48;87.11;98463.95;116983;1169;59581;-72
2021/10/01 03:50:37;;;;;;;22.00;13.70;;;;;;;4.48;87.52;98460.84;116972;1168;59558;-68
2021/10/01 03:53:07;;;;;;;28.30;14.90;;;;;;;4.52;88.06;98462.38;116944;1176;70579;-68
2021/10/01 03:55:38;;;;;;;20.30;14.10;;;;;;;4.53;87.45;98457.45;117162;1177;69170;-70
2021/10/01 03:58:08;;;;;;;20.00;14.60;;;;;;;4.51;86.97;98460.96;117170;1177;68438;-73
2021/10/01 04:00:37;;;;;;;23.90;15.30;;;;;;;4.47;86.22;98462.47;117046;1177;59531;-71
2021/10/01 04:03:07;;;;;;;27.00;17.70;;;;;;;4.45;85.69;98460.17;117219;1177;59534;-72
2021/10/01 04:05:42;;;;;;;25.20;16.30;;;;;;;4.44;86.50;98458.83;116933;1174;71160;-70
2021/10/01 04:08:13;;;;;;;24.30;12.80;;;;;;;4.44;87.28;98461.95;117181;1177;68306;-70
2021/10/01 04:10:45;;;;;;;23.10;14.00;;;;;;;4.43;87.32;98461.63;116940;1176;68518;-70
2021/10/01 04:13:15;;;;;;;22.10;15.20;;;;;;;4.41;86.62;98465.61;117188;1177;59516;-71
2021/10/01 04:15:48;;;;;;;22.90;15.90;;;;;;;4.42;86.87;98466.73;117079;1177;59548;-72
2021/10/01 04:18:19;;;;;;;25.30;16.10;;;;;;;4.44;87.83;98472.77;116992;1176;70537;-68
2021/10/01 04:20:48;;;;;;;24.60;17.90;;;;;;;4.46;86.64;98474.98;116985;1177;68453;-69
2021/10/01 04:23:18;;;;;;;26.50;16.70;;;;;;;4.49;86.39;98475.02;116887;1177;68333;-70
2021/10/01 04:25:53;;;;;;;27.30;17.40;;;;;;;4.49;87.31;98476.29;117017;1177;59505;-69
2021/10/01 04:28:23;;;;;;;28.80;15.60;;;;;;;4.48;86.79;98482.14;117018;1177;59487;-71
2021/10/01 04:30:56;;;;;;;24.10;14.90;;;;;;;4.45;86.18;98483.67;117147;1176;70401;-69
2021/10/01 04:33:27;;;;;;;22.10;14.00;;;;;;;4.38;85.51;98483.83;116956;1177;69267;-69
2021/10/01 04:35:59;;;;;;;24.20;14.50;;;;;;;4.38;85.46;98486.89;117015;1176;68287;-70
2021/10/01 04:38:29;;;;;;;22.40;13.10;;;;;;;4.38;85.27;98490.42;116965;1177;59655;-72
2021/10/01 04:40:59;;;;;;;21.70;14.70;;;;;;;4.40;86.09;98493.17;116934;1177;59580;-69
2021/10/01 04:43:29;;;;;;;22.80;15.40;;;;;;;4.44;86.33;98491.58;116992;1177;71457;-70
2021/10/01 04:46:23;;;;;;;25.10;15.20;;;;;;;4.50;85.66;98492.91;116967;1174;68586;-68
2021/10/01 04:48:52;;;;;;;24.90;16.30;;;;;;;4.56;85.41;98494.95;116944;1177;69275;-70
2021/10/01 04:51:23;;;;;;;;;;;;;;;4.59;85.02;98497.23;117074;1177;59577;-70
2021/10/01 04:53:52;;;;;;;25.10;14.90;;;;;;;4.59;84.71;98499.35;116849;1178;59491;-69
2021/10/01 04:56:21;;;;;;;21.70;13.50;;;;;;;4.66;85.46;98500.14;117020;1177;70561;-70
2021/10/01 04:58:51;;;;;;;17.50;12.90;;;;;;;4.77;86.11;98499.77;117078;1176;68685;-70
2021/10/01 05:01:21;;;;;;;20.60;13.10;;;;;;;4.93;86.11;98499.09;116897;1177;68462;-69
2021/10/01 05:04:16;;;;;;;21.70;13.30;;;;;;;5.15;85.84;98496.64;116916;1177;59535;-70
2021/10/01 05:07:13;;;;;;;22.50;13.70;;;;;;;5.48;86.72;98496.05;116996;1177;59490;-69
2021/10/01 05:10:12;;;;;;;17.10;11.90;;;;;;;5.75;85.38;98501.83;116563;1177;70453;-72
2021/10/01 05:13:00;;;;;;;17.20;11.90;;;;;;;5.97;84.33;98503.80;116991;1177;69111;-71
2021/10/01 05:15:48;;;;;;;17.80;10.30;;;;;;;6.21;83.19;98506.93;117006;1177;68387;-70
2021/10/01 05:18:36;;;;;;;16.60;9.50;;;;;;;6.52;82.36;98507.61;117029;1176;59529;-70
2021/10/01 05:21:24;;;;;;;18.50;10.80;;;;;;;6.83;82.40;98510.79;117027;1176;59531;-70
2021/10/01 05:23:58;;;;;;;19.10;11.10;;;;;;;7.10;80.93;98512.58;117088;1177;70782;-69
2021/10/01 05:26:27;;;;;;;16.90;10.40;;;;;;;7.31;80.51;98517.34;116958;1177;69216;-74
2021/10/01 05:28:57;;;;;;;17.80;11.20;;;;;;;7.52;80.33;98515.45;116982;1177;69246;-69
2021/10/01 05:31:27;;;;;;;16.60;11.70;;;;;;;7.74;79.45;98515.28;116898;1178;59525;-73
2021/10/01 05:33:56;;;;;;;19.00;11.80;;;;;;;7.89;79.16;98521.17;117035;1176;59535;-71
2021/10/01 05:36:25;;;;;;;26.20;14.00;;;;;;;8.01;78.95;98518.32;117113;1176;70552;-71
2021/10/01 05:38:54;;;;;;;32.80;16.80;;;;;;;7.94;77.20;98516.92;116982;1177;68336;-72
2021/10/01 05:41:24;;;;;;;45.00;21.90;;;;;;;7.93;77.36;98518.59;117083;1177;69397;-71
2021/10/01 05:43:53;;;;;;;45.80;25.60;;;;;;;7.89;76.49;98520.95;116839;1177;59541;-72
2021/10/01 05:46:23;;;;;;;48.00;23.70;;;;;;;7.92;75.40;98521.42;117168;1177;59580;-68
2021/10/01 05:49:26;;;;;;;40.10;24.30;;;;;;;8.24;76.18;98521.59;116911;1177;70662;-69
2021/10/01 05:52:21;;;;;;;42.30;28.30;;;;;;;8.71;75.13;98523.58;117015;1177;68494;-71
2021/10/01 05:55:10;;;;;;;54.80;34.20;;;;;;;9.13;74.76;98528.33;116972;1176;68415;-70
2021/10/01 05:57:58;;;;;;;53.40;31.70;;;;;;;9.54;73.76;98527.64;117065;1177;59513;-72
2021/10/01 06:00:33;;;;;;;40.00;29.50;;;;;;;9.81;70.78;98532.09;117006;1177;59523;-67
2021/10/01 06:03:03;;;;;;;45.40;27.90;;;;;;;9.96;69.43;98531.88;117060;1177;70798;-72
2021/10/01 06:05:32;;;;;;;33.00;22.30;;;;;;;10.13;68.85;98530.60;116974;1177;68537;-70
2021/10/01 06:08:01;;;;;;;31.70;19.40;;;;;;;10.40;70.47;98536.76;116986;1176;69347;-73
2021/10/01 06:10:30;;;;;;;33.60;20.70;;;;;;;10.55;69.22;98535.95;116986;1177;59487;-74
2021/10/01 06:12:59;;;;;;;42.30;23.50;;;;;;;10.61;69.55;98535.10;117294;1177;59499;-72
2021/10/01 06:15:28;;;;;;;60.40;29.30;;;;;;;10.65;70.32;98535.29;117038;1177;70668;-74
2021/10/01 06:17:57;;;;;;;54.30;27.20;;;;;;;10.62;70.41;98540.48;116993;1176;69219;-73
2021/10/01 06:20:26;;;;;;;47.90;25.60;;;;;;;10.52;69.69;98538.67;117047;1177;69256;-71
2021/10/01 06:22:56;;;;;;;48.20;26.90;;;;;;;10.28;68.96;98540.43;117146;1176;59516;-74
2021/10/01 06:25:25;;;;;;;56.90;31.30;;;;;;;10.20;69.72;98540.50;116903;1177;59536;-74
2021/10/01 06:27:54;;;;;;;59.70;32.10;;;;;;;10.18;70.47;98541.15;117068;1176;70655;-73
2021/10/01 06:30:23;;;;;;;69.30;34.70;;;;;;;10.13;70.44;98547.21;117142;1176;69456;-73
2021/10/01 06:32:52;;;;;;;61.20;33.70;;;;;;;10.00;70.81;98548.12;117203;1177;69676;-71
2021/10/01 06:35:21;;;;;;;54.60;26.50;;;;;;;9.94;71.46;98552.77;116966;1177;59532;-72
2021/10/01 06:37:50;;;;;;;46.60;27.20;;;;;;;9.89;71.73;98553.98;116980;1177;59514;-71
2021/10/01 06:40:19;;;;;;;41.20;23.70;;;;;;;9.84;71.91;98552.77;117175;1176;71472;-73
2021/10/01 06:42:50;;;;;;;26.80;16.80;;;;;;;9.88;71.85;98554.08;117044;1177;68590;-74
2021/10/01 06:45:27;;;;;;;28.10;14.80;;;;;;;9.89;72.07;98550.98;117044;1176;69060;-72
2021/10/01 07:21:35;;;;;;;24.20;13.20;;;;;;;10.99;70.70;98555.77;116986;1176;71506;-74
2021/10/01 08:20:11;;;;;;;19.20;10.00;;;;;;;12.72;63.08;98541.65;116879;1178;69015;-70
2021/10/01 08:22:40;;;;;;;19.50;10.50;;;;;;;12.99;62.11;98538.39;116907;1177;68467;-70
2021/10/01 08:25:10;;;;;;;26.40;11.80;;;;;;;13.24;61.87;98540.73;116997;1177;59541;-70
2021/10/01 08:27:40;;;;;;;17.10;11.00;;;;;;;13.44;61.06;98535.91;116826;1178;59474;-70
2021/10/01 08:30:10;;;;;;;21.70;11.40;;;;;;;13.59;60.48;98533.82;116914;1177;71749;-73
2021/10/01 08:32:41;;;;;;;17.80;10.60;;;;;;;13.81;60.16;98533.20;116687;1179;67867;-68
2021/10/01 08:35:11;;;;;;;18.00;10.90;;;;;;;13.94;59.89;98533.98;117052;1175;69316;-71
2021/10/01 08:37:41;;;;;;;17.90;9.70;;;;;;;14.05;58.79;98541.19;116938;1177;59516;-69
2021/10/01 08:40:11;;;;;;;22.60;9.70;;;;;;;14.12;59.07;98541.30;116977;1176;59917;-70
2021/10/01 08:42:46;;;;;;;16.10;9.60;;;;;;;14.29;59.21;98539.27;116904;1177;71216;-69
2021/10/01 08:45:17;;;;;;;22.70;9.50;;;;;;;14.61;58.71;98533.27;117020;1177;68446;-71
2021/10/01 08:47:46;;;;;;;15.80;9.60;;;;;;;14.79;57.61;98536.97;116947;1177;69351;-71
2021/10/01 08:50:21;;;;;;;18.50;9.90;;;;;;;15.01;57.17;98538.43;116894;1177;59538;-70
2021/10/01 08:52:51;;;;;;;18.80;10.90;;;;;;;15.18;56.25;98538.30;117176;1177;59529;-70
2021/10/01 08:55:21;;;;;;;30.80;20.10;;;;;;;15.29;55.54;98538.21;117087;1177;70831;-72
2021/10/01 08:57:50;;;;;;;15.10;8.70;;;;;;;15.42;53.89;98536.20;116956;1177;68529;-70
2021/10/01 09:00:20;;;;;;;18.30;8.70;;;;;;;15.59;53.64;98535.88;117092;1176;69343;-74
2021/10/01 09:02:50;;;;;;;12.70;8.00;;;;;;;15.85;53.58;98535.11;117078;1177;59535;-73
2021/10/01 09:05:19;;;;;;;17.80;7.80;;;;;;;16.06;52.73;98532.58;117008;1177;59529;-72
2021/10/01 09:07:49;;;;;;;13.80;7.90;;;;;;;16.28;52.26;98531.09;116984;1176;71196;-71
2021/10/01 09:10:18;;;;;;;12.20;7.90;;;;;;;16.47;51.72;98530.60;117015;1177;68543;-71
2021/10/01 09:12:53;;;;;;;16.30;8.70;;;;;;;16.72;50.63;98525.09;116984;1177;69091;-73
2021/10/01 09:15:22;;;;;;;12.60;8.50;;;;;;;16.78;49.20;98525.66;117002;1176;60384;-74
2021/10/01 09:17:57;;;;;;;16.70;7.70;;;;;;;17.24;48.84;98518.88;117061;1176;58914;-73
2021/10/01 09:20:27;;;;;;;13.10;7.70;;;;;;;18.02;48.41;98519.21;117036;1177;71357;-73
2021/10/01 09:23:21;;;;;;;17.50;8.40;;;;;;;18.72;45.10;98518.76;117007;1176;69715;-72
2021/10/01 09:26:14;;;;;;;15.30;7.30;;;;;;;18.73;44.12;98514.16;117153;1176;69058;-71
2021/10/01 09:28:44;;;;;;;13.20;6.90;;;;;;;19.78;43.20;98514.77;116972;1177;59539;-73
2021/10/01 09:31:52;;;;;;;12.70;6.20;;;;;;;20.79;42.65;98514.11;117163;1176;59507;-72
2021/10/01 09:34:24;;;;;;;11.80;7.00;;;;;;;21.57;40.04;98514.46;116395;1182;70679;-72
2021/10/01 09:37:12;;;;;;;12.20;6.40;;;;;;;21.82;38.19;98515.16;116423;1180;69348;-73
2021/10/01 09:39:51;;;;;;;14.80;6.10;;;;;;;22.15;37.69;98510.34;116405;1182;68582;-73
2021/10/01 09:42:29;;;;;;;12.40;6.30;;;;;;;22.44;37.91;98507.76;116443;1173;59548;-70
2021/10/01 09:45:01;;;;;;;14.40;7.00;;;;;;;22.70;36.21;98507.47;116367;1182;59697;-74
2021/10/01 09:47:33;;;;;;;15.00;6.20;;;;;;;22.55;36.36;98505.64;116414;1182;71704;-71
2021/10/01 09:50:15;;;;;;;11.30;6.20;;;;;;;22.94;35.80;98498.59;116454;1182;69221;-74
2021/10/01 09:52:49;;;;;;;16.90;6.80;;;;;;;22.75;35.40;98496.59;116375;1182;68119;-70
2021/10/01 09:55:21;;;;;;;15.40;6.40;;;;;;;23.55;34.79;98497.54;116351;1182;59635;-70
2021/10/01 09:58:11;;;;;;;9.40;5.90;;;;;;;23.38;34.89;98494.88;116438;1180;59576;-70
2021/10/01 10:00:42;;;;;;;12.00;5.40;;;;;;;23.20;34.95;98495.11;116386;1181;71186;-71
2021/10/01 10:03:23;;;;;;;18.70;6.50;;;;;;;23.48;34.45;98494.34;116376;1182;68736;-71
2021/10/01 10:06:01;;;;;;;14.20;6.50;;;;;;;23.84;34.30;98491.30;116765;1177;69069;-74
2021/10/01 10:08:33;;;;;;;9.50;5.30;;;;;;;24.24;34.28;98491.20;117191;1176;59525;-71
2021/10/01 10:11:06;;;;;;;10.50;5.60;;;;;;;25.32;32.00;98490.50;117169;1176;59590;-70
2021/10/01 10:13:46;;;;;;;10.60;5.40;;;;;;;24.80;31.85;98484.45;117123;1177;71492;-73
2021/10/01 10:16:29;;;;;;;15.30;5.90;;;;;;;24.04;33.39;98484.59;117081;1177;67310;-71
2021/10/01 10:19:02;;;;;;;9.20;5.70;;;;;;;24.82;32.87;98477.97;117124;1176;68830;-73
2021/10/01 10:21:31;;;;;;;11.40;5.40;;;;;;;25.48;31.39;98478.77;117090;1177;59522;-71
2021/10/01 10:24:01;;;;;;;11.30;6.40;;;;;;;25.15;31.78;98473.70;116986;1177;59552;-73
2021/10/01 10:26:30;;;;;;;;;;;;;;;24.91;31.96;98474.18;117266;1177;70407;-72
2021/10/01 10:29:04;;;;;;;12.80;6.20;;;;;;;25.28;30.83;98474.54;117159;1177;69306;-72
2021/10/01 10:31:36;;;;;;;11.30;5.80;;;;;;;24.62;32.01;98474.27;117122;1176;69354;-73
2021/10/01 10:34:19;;;;;;;15.60;5.90;;;;;;;25.33;31.28;98472.45;116990;1177;59487;-73
2021/10/01 10:36:48;;;;;;;11.40;5.30;;;;;;;24.59;31.98;98470.27;117134;1176;59491;-71
2021/10/01 10:39:19;;;;;;;17.10;6.20;;;;;;;24.51;32.72;98464.77;117209;1177;71490;-73
2021/10/01 10:42:05;;;;;;;12.20;6.20;;;;;;;25.34;30.92;98463.64;117084;1177;68501;-73
2021/10/01 10:44:55;;;;;;;12.30;6.10;;;;;;;24.92;31.56;98459.88;117035;1176;69396;-74
2021/10/01 10:47:46;;;;;;;14.60;7.00;;;;;;;24.75;32.14;98453.02;117098;1176;59517;-73
2021/10/01 10:50:26;;;;;;;12.10;6.40;;;;;;;25.56;31.58;98450.16;117083;1177;59469;-73
2021/10/01 10:53:05;;;;;;;10.10;5.90;;;;;;;26.05;30.43;98449.17;117076;1177;70734;-71
2021/10/01 10:55:51;;;;;;;13.80;6.60;;;;;;;26.77;29.74;98445.52;116991;1177;69382;-71
2021/10/01 10:58:23;;;;;;;11.50;6.10;;;;;;;27.38;27.68;98442.98;117014;1177;68462;-73
2021/10/01 11:00:59;;;;;;;11.80;5.60;;;;;;;26.17;29.49;98439.48;117033;1177;59541;-71
2021/10/01 11:03:33;;;;;;;12.70;5.60;;;;;;;25.88;31.10;98435.02;116983;1177;59523;-72
2021/10/01 11:06:13;;;;;;;12.00;6.10;;;;;;;26.22;31.35;98433.06;117003;1177;70819;-74
2021/10/01 11:08:43;;;;;;;;;;;;;;;26.89;30.76;98428.98;117077;1176;69244;-73
2021/10/01 11:11:32;;;;;;;14.10;6.10;;;;;;;27.52;28.40;98421.24;117108;1177;69482;-73
2021/10/01 11:14:19;;;;;;;11.60;5.30;;;;;;;27.16;28.02;98421.19;116946;1176;59544;-74
2021/10/01 11:16:54;;;;;;;13.70;6.10;;;;;;;27.16;27.90;98420.97;116986;1177;59538;-73
2021/10/01 11:19:43;;;;;;;14.40;5.50;;;;;;;27.78;26.57;98417.32;117112;1176;70919;-71
2021/10/01 11:22:30;;;;;;;12.30;5.70;;;;;;;25.75;28.87;98418.33;116975;1177;69023;-74
2021/10/01 11:25:01;;;;;;;12.50;5.20;;;;;;;25.71;29.78;98411.00;117229;1177;68576;-73
2021/10/01 11:27:30;;;;;;;11.90;5.20;;;;;;;25.48;29.59;98409.30;116956;1177;59472;-72
2021/10/01 11:29:59;;;;;;;15.50;6.10;;;;;;;25.96;29.42;98405.84;116905;1177;59497;-71
2021/10/01 11:32:28;;;;;;;15.30;5.60;;;;;;;26.58;28.29;98400.73;117007;1177;70993;-74
2021/10/01 11:35:00;;;;;;;13.40;6.10;;;;;;;26.71;27.56;98395.84;117024;1176;68429;-73
2021/10/01 11:37:39;;;;;;;13.30;5.90;;;;;;;26.56;27.94;98390.77;117182;1177;69253;-71
2021/10/01 11:40:21;;;;;;;13.90;6.60;;;;;;;26.91;28.19;98390.57;117083;1177;59517;-72
2021/10/01 11:42:57;;;;;;;11.00;6.50;;;;;;;27.03;27.92;98388.30;117002;1176;59523;-73
2021/10/01 11:45:32;;;;;;;11.00;6.00;;;;;;;26.56;28.18;98384.97;116996;1177;71417;-73
2021/10/01 11:48:09;;;;;;;11.30;6.50;;;;;;;26.95;27.93;98380.52;116962;1177;69297;-73
2021/10/01 11:50:41;;;;;;;14.20;5.30;;;;;;;26.94;27.72;98378.98;117132;1177;69708;-72
2021/10/01 11:53:25;;;;;;;16.40;5.60;;;;;;;26.66;27.63;98377.73;117124;1176;59529;-71
2021/10/01 11:56:01;;;;;;;14.30;5.80;;;;;;;27.06;26.93;98374.13;117123;1177;59529;-74
2021/10/01 11:58:32;;;;;;;13.80;5.50;;;;;;;27.19;26.59;98373.77;116913;1177;71285;-72
2021/10/01 12:01:28;;;;;;;13.00;5.60;;;;;;;27.25;26.55;98368.48;117008;1174;69229;-71
2021/10/01 12:04:00;;;;;;;14.60;5.50;;;;;;;26.93;26.95;98368.33;117073;1177;69187;-71
2021/10/01 12:06:35;;;;;;;9.10;4.80;;;;;;;27.02;26.70;98370.55;117013;1177;59535;-71
2021/10/01 12:09:07;;;;;;;15.40;5.70;;;;;;;26.36;26.96;98370.89;117068;1177;59505;-73
2021/10/01 12:11:39;;;;;;;13.20;5.50;;;;;;;25.95;27.41;98370.59;117082;1177;71534;-73
2021/10/01 12:14:20;;;;;;;12.00;5.90;;;;;;;26.10;27.65;98370.20;117093;1177;68005;-73
2021/10/01 12:17:09;;;;;;;14.20;5.40;;;;;;;25.97;27.99;98364.12;117028;1177;68725;-73
2021/10/01 12:19:38;;;;;;;11.60;6.10;;;;;;;26.49;27.14;98362.59;117020;1176;59509;-74
2021/10/01 12:22:10;;;;;;;14.30;5.40;;;;;;;26.10;27.41;98362.98;117055;1177;59535;-73
2021/10/01 12:24:48;;;;;;;11.70;4.90;;;;;;;25.21;28.86;98359.38;117068;1177;70630;-74
2021/10/01 12:27:20;;;;;;;10.40;5.40;;;;;;;26.33;27.73;98361.20;117290;1177;68296;-73
2021/10/01 12:29:51;;;;;;;12.80;5.30;;;;;;;25.75;27.98;98359.95;117001;1177;69216;-73
2021/10/01 12:32:21;;;;;;;10.90;5.50;;;;;;;26.07;27.38;98359.66;117096;1177;59482;-74
2021/10/01 12:34:57;;;;;;;10.30;5.40;;;;;;;26.19;28.29;98358.05;117024;1177;59551;-72
2021/10/01 12:37:30;;;;;;;13.70;6.70;;;;;;;26.52;27.51;98355.80;117146;1177;70923;-73
2021/10/01 12:40:00;;;;;;;16.40;7.30;;;;;;;26.47;27.12;98358.06;117124;1177;68270;-74
2021/10/01 12:42:32;;;;;;;16.80;7.70;;;;;;;26.84;27.38;98354.61;117013;1177;69113;-74
2021/10/01 12:45:06;;;;;;;25.70;9.30;;;;;;;27.20;26.49;98349.18;117051;1177;59984;-74
2021/10/01 12:47:38;;;;;;;17.60;9.10;;;;;;;27.76;26.51;98347.08;116947;1177;59612;-74
2021/10/01 12:50:07;;;;;;;25.80;9.10;;;;;;;28.15;25.89;98345.98;117151;1177;70706;-73
2021/10/01 12:52:38;;;;;;;25.50;9.20;;;;;;;28.06;26.02;98341.27;117013;1176;69169;-74
2021/10/01 12:55:13;;;;;;;25.60;8.60;;;;;;;28.01;26.30;98340.05;117100;1177;68444;-74
2021/10/01 12:57:45;;;;;;;27.70;9.50;;;;;;;28.37;26.05;98335.67;117062;1177;59496;-75
2021/10/01 13:00:16;;;;;;;16.40;7.70;;;;;;;28.57;25.56;98337.35;117046;1177;59543;-75
2021/10/01 13:02:58;;;;;;;20.10;8.70;;;;;;;28.82;25.05;98336.43;117084;1177;70798;-75
2021/10/01 13:05:33;;;;;;;16.40;8.00;;;;;;;29.26;24.70;98334.58;117155;1176;69792;-75
2021/10/01 13:08:03;;;;;;;15.20;7.10;;;;;;;29.50;24.20;98332.02;117109;1177;69389;-74
2021/10/01 13:10:37;;;;;;;10.90;6.80;;;;;;;29.03;23.87;98327.21;117148;1176;59517;-75
2021/10/01 13:13:12;;;;;;;11.50;7.00;;;;;;;28.67;24.12;98324.59;117058;1170;59532;-74
2021/10/01 13:15:51;;;;;;;16.00;8.20;;;;;;;27.58;25.65;98322.98;117032;1177;70811;-74
2021/10/01 13:18:31;;;;;;;19.20;8.70;;;;;;;27.27;26.25;98316.30;117148;1177;69257;-75
2021/10/01 13:21:08;;;;;;;15.00;7.90;;;;;;;26.98;26.74;98316.07;117051;1177;69217;-73
2021/10/01 13:23:45;;;;;;;16.30;8.60;;;;;;;26.35;27.79;98314.96;117019;1177;59528;-75
2021/10/01 13:26:24;;;;;;;14.70;8.40;;;;;;;26.27;28.29;98313.66;117030;1176;59525;-74